Pollards Corner, Georgia
Current Conditions -  °F | °C
As of 2:35 AM on Thursday 23 Oct 2014 (Local Time) from KHQU Reporting Station
NA  
Wind Chill: 42°   Ceiling: NA
Heat Index: 42°   Visibility: NA
Dew Point: 42°   Wind: 0mph
Humidity: 100%   Direction: NA
Pressure: 30.15"   Gusts: NA
Location:  33.6237°N, 82.2874°W
Report Text: KHQU 230635Z AUTO 00000KT 06/06 A3015 RMK AO1 T00560056
Loading
Personal Weather Stations






























Interactive Weather Map
Tropical Storm Tracking
New forecast layout! Learn more

10-Day Weather Forecast

Advertisements
Track Severe Weather on mobile